sensor_id;sensor_type;location;lat;lon;timestamp;P1;durP1;ratioP1;P2;durP2;ratioP2
65096;SDS011;51686;46.758;4.356;2022-07-25T00:02:23;8.30;;;5.20;;
65096;SDS011;51686;46.758;4.356;2022-07-25T00:05:11;9.30;;;6.07;;
65096;SDS011;51686;46.758;4.356;2022-07-25T00:07:58;8.77;;;5.10;;
65096;SDS011;51686;46.758;4.356;2022-07-25T00:10:45;8.23;;;5.15;;
65096;SDS011;51686;46.758;4.356;2022-07-25T00:13:33;8.80;;;5.75;;
65096;SDS011;51686;46.758;4.356;2022-07-25T00:16:20;8.68;;;5.47;;
65096;SDS011;51686;46.758;4.356;2022-07-25T00:19:08;9.48;;;5.70;;
65096;SDS011;51686;46.758;4.356;2022-07-25T00:21:55;9.07;;;5.32;;
65096;SDS011;51686;46.758;4.356;2022-07-25T00:24:44;8.82;;;5.53;;
65096;SDS011;51686;46.758;4.356;2022-07-25T00:27:31;9.63;;;5.90;;
65096;SDS011;51686;46.758;4.356;2022-07-25T00:30:18;8.97;;;5.83;;
65096;SDS011;51686;46.758;4.356;2022-07-25T00:33:05;9.30;;;5.95;;
65096;SDS011;51686;46.758;4.356;2022-07-25T00:35:52;9.48;;;5.60;;
65096;SDS011;51686;46.758;4.356;2022-07-25T00:38:39;9.98;;;6.18;;
65096;SDS011;51686;46.758;4.356;2022-07-25T00:41:26;9.70;;;5.95;;
65096;SDS011;51686;46.758;4.356;2022-07-25T00:44:21;9.40;;;5.57;;
65096;SDS011;51686;46.758;4.356;2022-07-25T00:47:11;9.25;;;6.03;;
65096;SDS011;51686;46.758;4.356;2022-07-25T00:49:58;8.68;;;5.50;;
65096;SDS011;51686;46.758;4.356;2022-07-25T00:52:47;9.27;;;5.75;;
65096;SDS011;51686;46.758;4.356;2022-07-25T00:55:34;9.95;;;5.70;;
65096;SDS011;51686;46.758;4.356;2022-07-25T00:58:24;9.20;;;5.82;;
65096;SDS011;51686;46.758;4.356;2022-07-25T01:01:11;9.27;;;5.90;;
65096;SDS011;51686;46.758;4.356;2022-07-25T01:03:58;9.48;;;6.10;;
65096;SDS011;51686;46.758;4.356;2022-07-25T01:06:45;9.40;;;6.05;;
65096;SDS011;51686;46.758;4.356;2022-07-25T01:09:35;9.15;;;6.10;;
65096;SDS011;51686;46.758;4.356;2022-07-25T01:12:25;9.82;;;6.43;;
65096;SDS011;51686;46.758;4.356;2022-07-25T01:15:12;10.75;;;6.72;;
65096;SDS011;51686;46.758;4.356;2022-07-25T01:17:59;9.45;;;6.07;;
65096;SDS011;51686;46.758;4.356;2022-07-25T01:20:46;9.60;;;6.25;;
65096;SDS011;51686;46.758;4.356;2022-07-25T01:23:33;9.63;;;6.18;;
65096;SDS011;51686;46.758;4.356;2022-07-25T01:26:20;9.55;;;6.35;;
65096;SDS011;51686;46.758;4.356;2022-07-25T01:29:07;9.30;;;5.97;;
65096;SDS011;51686;46.758;4.356;2022-07-25T01:31:54;10.40;;;6.68;;
65096;SDS011;51686;46.758;4.356;2022-07-25T01:34:47;9.93;;;6.45;;
65096;SDS011;51686;46.758;4.356;2022-07-25T01:37:34;9.40;;;6.13;;
65096;SDS011;51686;46.758;4.356;2022-07-25T01:40:21;9.40;;;5.65;;
65096;SDS011;51686;46.758;4.356;2022-07-25T01:43:13;10.07;;;6.50;;
65096;SDS011;51686;46.758;4.356;2022-07-25T01:46:00;9.63;;;6.57;;
65096;SDS011;51686;46.758;4.356;2022-07-25T01:48:47;9.70;;;6.35;;
65096;SDS011;51686;46.758;4.356;2022-07-25T01:51:34;9.68;;;6.50;;
65096;SDS011;51686;46.758;4.356;2022-07-25T01:54:21;10.93;;;6.82;;
65096;SDS011;51686;46.758;4.356;2022-07-25T01:57:08;10.02;;;6.32;;
65096;SDS011;51686;46.758;4.356;2022-07-25T01:59:57;10.23;;;6.38;;
65096;SDS011;51686;46.758;4.356;2022-07-25T02:02:44;10.10;;;6.10;;
65096;SDS011;51686;46.758;4.356;2022-07-25T02:05:32;10.10;;;6.13;;
65096;SDS011;51686;46.758;4.356;2022-07-25T02:08:22;10.27;;;6.60;;
65096;SDS011;51686;46.758;4.356;2022-07-25T02:11:09;9.10;;;5.93;;
65096;SDS011;51686;46.758;4.356;2022-07-25T02:13:56;10.13;;;6.50;;
65096;SDS011;51686;46.758;4.356;2022-07-25T02:16:43;9.38;;;6.40;;
65096;SDS011;51686;46.758;4.356;2022-07-25T02:19:30;9.70;;;6.03;;
65096;SDS011;51686;46.758;4.356;2022-07-25T02:22:20;9.82;;;6.53;;
65096;SDS011;51686;46.758;4.356;2022-07-25T02:25:09;9.68;;;6.30;;
65096;SDS011;51686;46.758;4.356;2022-07-25T02:27:56;9.68;;;6.25;;
65096;SDS011;51686;46.758;4.356;2022-07-25T02:30:43;9.70;;;6.45;;
65096;SDS011;51686;46.758;4.356;2022-07-25T02:33:35;10.13;;;6.10;;
65096;SDS011;51686;46.758;4.356;2022-07-25T02:36:23;9.70;;;6.33;;
65096;SDS011;51686;46.758;4.356;2022-07-25T02:39:10;10.25;;;6.78;;
65096;SDS011;51686;46.758;4.356;2022-07-25T02:41:57;9.68;;;6.50;;
65096;SDS011;51686;46.758;4.356;2022-07-25T02:44:44;10.38;;;6.65;;
65096;SDS011;51686;46.758;4.356;2022-07-25T02:47:39;9.45;;;6.47;;
65096;SDS011;51686;46.758;4.356;2022-07-25T02:50:29;9.65;;;6.60;;
65096;SDS011;51686;46.758;4.356;2022-07-25T02:53:19;10.52;;;6.22;;
65096;SDS011;51686;46.758;4.356;2022-07-25T02:56:29;9.02;;;5.80;;
65096;SDS011;51686;46.758;4.356;2022-07-25T02:59:21;10.43;;;6.55;;
65096;SDS011;51686;46.758;4.356;2022-07-25T03:02:18;9.73;;;6.15;;
65096;SDS011;51686;46.758;4.356;2022-07-25T03:05:11;9.50;;;6.18;;
65096;SDS011;51686;46.758;4.356;2022-07-25T03:08:03;10.60;;;6.38;;
65096;SDS011;51686;46.758;4.356;2022-07-25T03:10:51;10.38;;;6.70;;
65096;SDS011;51686;46.758;4.356;2022-07-25T03:13:38;9.23;;;5.90;;
65096;SDS011;51686;46.758;4.356;2022-07-25T03:16:25;9.85;;;5.90;;
65096;SDS011;51686;46.758;4.356;2022-07-25T03:19:15;10.85;;;6.95;;
65096;SDS011;51686;46.758;4.356;2022-07-25T03:22:07;10.60;;;6.68;;
65096;SDS011;51686;46.758;4.356;2022-07-25T03:24:58;10.27;;;6.57;;
65096;SDS011;51686;46.758;4.356;2022-07-25T03:28:07;9.82;;;6.55;;
65096;SDS011;51686;46.758;4.356;2022-07-25T03:30:54;10.13;;;6.43;;
65096;SDS011;51686;46.758;4.356;2022-07-25T03:33:41;10.25;;;6.47;;
65096;SDS011;51686;46.758;4.356;2022-07-25T03:36:34;11.25;;;6.65;;
65096;SDS011;51686;46.758;4.356;2022-07-25T03:39:24;10.73;;;6.50;;
65096;SDS011;51686;46.758;4.356;2022-07-25T03:42:11;10.05;;;6.53;;
65096;SDS011;51686;46.758;4.356;2022-07-25T03:44:58;10.27;;;6.85;;
65096;SDS011;51686;46.758;4.356;2022-07-25T03:47:45;10.10;;;6.45;;
65096;SDS011;51686;46.758;4.356;2022-07-25T03:50:32;9.85;;;6.68;;
65096;SDS011;51686;46.758;4.356;2022-07-25T03:53:22;10.27;;;6.70;;
65096;SDS011;51686;46.758;4.356;2022-07-25T03:56:09;9.80;;;6.60;;
65096;SDS011;51686;46.758;4.356;2022-07-25T03:59:00;10.88;;;6.93;;
65096;SDS011;51686;46.758;4.356;2022-07-25T04:01:48;10.20;;;6.70;;
65096;SDS011;51686;46.758;4.356;2022-07-25T04:04:50;9.55;;;6.40;;
65096;SDS011;51686;46.758;4.356;2022-07-25T04:07:47;9.52;;;6.30;;
65096;SDS011;51686;46.758;4.356;2022-07-25T04:10:37;10.77;;;6.78;;
65096;SDS011;51686;46.758;4.356;2022-07-25T04:13:29;11.07;;;6.72;;
65096;SDS011;51686;46.758;4.356;2022-07-25T04:16:17;9.98;;;6.72;;
65096;SDS011;51686;46.758;4.356;2022-07-25T04:19:08;9.73;;;6.60;;
65096;SDS011;51686;46.758;4.356;2022-07-25T04:21:57;9.95;;;6.53;;
65096;SDS011;51686;46.758;4.356;2022-07-25T04:24:53;10.15;;;6.72;;
65096;SDS011;51686;46.758;4.356;2022-07-25T04:27:42;12.00;;;6.75;;
65096;SDS011;51686;46.758;4.356;2022-07-25T04:30:29;10.38;;;6.97;;
65096;SDS011;51686;46.758;4.356;2022-07-25T04:33:19;10.30;;;6.70;;
65096;SDS011;51686;46.758;4.356;2022-07-25T04:36:07;10.33;;;6.60;;
65096;SDS011;51686;46.758;4.356;2022-07-25T04:38:54;10.00;;;6.57;;
65096;SDS011;51686;46.758;4.356;2022-07-25T04:41:41;10.10;;;6.93;;
65096;SDS011;51686;46.758;4.356;2022-07-25T04:44:29;10.68;;;6.82;;
65096;SDS011;51686;46.758;4.356;2022-07-25T04:47:19;10.90;;;6.70;;
65096;SDS011;51686;46.758;4.356;2022-07-25T04:50:08;10.35;;;6.43;;
65096;SDS011;51686;46.758;4.356;2022-07-25T04:52:55;10.10;;;6.45;;
65096;SDS011;51686;46.758;4.356;2022-07-25T04:55:42;10.95;;;6.90;;
65096;SDS011;51686;46.758;4.356;2022-07-25T04:58:30;11.23;;;6.95;;
65096;SDS011;51686;46.758;4.356;2022-07-25T05:01:17;10.45;;;7.10;;
65096;SDS011;51686;46.758;4.356;2022-07-25T05:04:04;10.38;;;7.40;;
65096;SDS011;51686;46.758;4.356;2022-07-25T05:06:56;10.32;;;7.10;;
65096;SDS011;51686;46.758;4.356;2022-07-25T05:09:43;11.02;;;6.97;;
65096;SDS011;51686;46.758;4.356;2022-07-25T05:12:31;10.65;;;7.05;;
65096;SDS011;51686;46.758;4.356;2022-07-25T05:15:18;10.52;;;6.80;;
65096;SDS011;51686;46.758;4.356;2022-07-25T05:18:06;10.45;;;7.28;;
65096;SDS011;51686;46.758;4.356;2022-07-25T05:20:53;10.52;;;7.22;;
65096;SDS011;51686;46.758;4.356;2022-07-25T05:23:44;10.85;;;7.32;;
65096;SDS011;51686;46.758;4.356;2022-07-25T05:26:45;10.35;;;7.18;;
65096;SDS011;51686;46.758;4.356;2022-07-25T05:29:45;10.98;;;7.55;;
65096;SDS011;51686;46.758;4.356;2022-07-25T05:32:54;11.43;;;7.63;;
65096;SDS011;51686;46.758;4.356;2022-07-25T05:40:12;11.10;;;7.45;;
65096;SDS011;51686;46.758;4.356;2022-07-25T05:43:22;10.18;;;6.80;;
65096;SDS011;51686;46.758;4.356;2022-07-25T05:46:37;11.27;;;7.40;;
65096;SDS011;51686;46.758;4.356;2022-07-25T05:49:35;11.95;;;7.60;;
65096;SDS011;51686;46.758;4.356;2022-07-25T05:56:23;11.52;;;7.22;;
65096;SDS011;51686;46.758;4.356;2022-07-25T05:59:42;11.55;;;7.28;;
65096;SDS011;51686;46.758;4.356;2022-07-25T06:10:44;11.23;;;7.55;;
65096;SDS011;51686;46.758;4.356;2022-07-25T06:14:03;11.18;;;7.82;;
65096;SDS011;51686;46.758;4.356;2022-07-25T06:21:41;10.90;;;7.63;;
65096;SDS011;51686;46.758;4.356;2022-07-25T06:24:58;12.18;;;8.30;;
65096;SDS011;51686;46.758;4.356;2022-07-25T06:28:33;11.77;;;8.23;;
65096;SDS011;51686;46.758;4.356;2022-07-25T06:34:50;11.65;;;8.43;;
65096;SDS011;51686;46.758;4.356;2022-07-25T06:37:58;11.68;;;7.65;;
65096;SDS011;51686;46.758;4.356;2022-07-25T06:49:27;11.20;;;7.55;;
65096;SDS011;51686;46.758;4.356;2022-07-25T06:52:46;11.90;;;7.82;;
65096;SDS011;51686;46.758;4.356;2022-07-25T06:55:47;11.40;;;7.30;;
65096;SDS011;51686;46.758;4.356;2022-07-25T06:59:01;13.07;;;7.38;;
65096;SDS011;51686;46.758;4.356;2022-07-25T07:02:23;10.88;;;6.85;;
65096;SDS011;51686;46.758;4.356;2022-07-25T07:05:34;12.02;;;7.10;;
65096;SDS011;51686;46.758;4.356;2022-07-25T07:08:42;10.10;;;6.38;;
65096;SDS011;51686;46.758;4.356;2022-07-25T07:11:48;10.40;;;6.95;;
65096;SDS011;51686;46.758;4.356;2022-07-25T07:14:53;11.70;;;6.85;;
65096;SDS011;51686;46.758;4.356;2022-07-25T07:18:30;10.35;;;6.18;;
65096;SDS011;51686;46.758;4.356;2022-07-25T07:21:33;10.32;;;6.20;;
65096;SDS011;51686;46.758;4.356;2022-07-25T07:24:52;10.13;;;6.03;;
65096;SDS011;51686;46.758;4.356;2022-07-25T07:28:03;10.50;;;6.32;;
65096;SDS011;51686;46.758;4.356;2022-07-25T07:35:13;9.48;;;5.88;;
65096;SDS011;51686;46.758;4.356;2022-07-25T07:38:28;9.75;;;6.05;;
65096;SDS011;51686;46.758;4.356;2022-07-25T07:42:13;9.20;;;5.20;;
65096;SDS011;51686;46.758;4.356;2022-07-25T07:45:30;9.25;;;5.55;;
65096;SDS011;51686;46.758;4.356;2022-07-25T07:48:55;8.90;;;5.35;;
65096;SDS011;51686;46.758;4.356;2022-07-25T07:52:59;9.93;;;5.70;;
65096;SDS011;51686;46.758;4.356;2022-07-25T07:57:05;9.00;;;5.25;;
65096;SDS011;51686;46.758;4.356;2022-07-25T07:59:52;8.80;;;4.88;;
65096;SDS011;51686;46.758;4.356;2022-07-25T08:02:43;8.30;;;4.90;;
65096;SDS011;51686;46.758;4.356;2022-07-25T08:05:32;8.73;;;5.03;;
65096;SDS011;51686;46.758;4.356;2022-07-25T08:08:20;9.27;;;5.13;;
65096;SDS011;51686;46.758;4.356;2022-07-25T08:11:14;8.50;;;5.18;;
65096;SDS011;51686;46.758;4.356;2022-07-25T08:14:01;9.02;;;5.30;;
65096;SDS011;51686;46.758;4.356;2022-07-25T08:16:50;9.32;;;5.38;;
65096;SDS011;51686;46.758;4.356;2022-07-25T08:19:38;9.38;;;5.40;;
65096;SDS011;51686;46.758;4.356;2022-07-25T08:22:34;9.57;;;5.55;;
65096;SDS011;51686;46.758;4.356;2022-07-25T08:25:25;9.32;;;5.25;;
65096;SDS011;51686;46.758;4.356;2022-07-25T08:28:13;9.93;;;5.38;;
65096;SDS011;51686;46.758;4.356;2022-07-25T08:31:00;9.10;;;5.35;;
65096;SDS011;51686;46.758;4.356;2022-07-25T08:33:49;8.85;;;5.30;;
65096;SDS011;51686;46.758;4.356;2022-07-25T08:36:37;8.25;;;4.85;;
65096;SDS011;51686;46.758;4.356;2022-07-25T08:39:24;8.55;;;5.00;;
65096;SDS011;51686;46.758;4.356;2022-07-25T08:42:11;10.80;;;5.47;;
65096;SDS011;51686;46.758;4.356;2022-07-25T08:44:59;9.10;;;5.43;;
65096;SDS011;51686;46.758;4.356;2022-07-25T08:47:50;7.95;;;4.78;;
65096;SDS011;51686;46.758;4.356;2022-07-25T08:53:25;8.18;;;4.80;;
65096;SDS011;51686;46.758;4.356;2022-07-25T08:56:21;8.65;;;5.00;;
65096;SDS011;51686;46.758;4.356;2022-07-25T08:59:08;8.57;;;4.90;;
65096;SDS011;51686;46.758;4.356;2022-07-25T09:01:55;9.30;;;5.47;;
65096;SDS011;51686;46.758;4.356;2022-07-25T09:04:44;8.90;;;5.07;;
65096;SDS011;51686;46.758;4.356;2022-07-25T09:07:35;8.40;;;5.20;;
65096;SDS011;51686;46.758;4.356;2022-07-25T09:10:24;8.55;;;5.15;;
65096;SDS011;51686;46.758;4.356;2022-07-25T09:13:14;9.52;;;5.70;;
65096;SDS011;51686;46.758;4.356;2022-07-25T09:16:02;8.52;;;4.95;;
65096;SDS011;51686;46.758;4.356;2022-07-25T09:18:52;9.05;;;5.47;;
65096;SDS011;51686;46.758;4.356;2022-07-25T09:21:40;8.85;;;5.55;;
65096;SDS011;51686;46.758;4.356;2022-07-25T09:24:30;9.18;;;5.10;;
65096;SDS011;51686;46.758;4.356;2022-07-25T09:27:18;9.27;;;5.40;;
65096;SDS011;51686;46.758;4.356;2022-07-25T09:30:12;8.75;;;5.20;;
65096;SDS011;51686;46.758;4.356;2022-07-25T09:33:01;8.82;;;5.10;;
65096;SDS011;51686;46.758;4.356;2022-07-25T09:35:49;8.57;;;4.90;;
65096;SDS011;51686;46.758;4.356;2022-07-25T09:38:36;8.50;;;5.22;;
65096;SDS011;51686;46.758;4.356;2022-07-25T09:41:33;9.63;;;5.68;;
65096;SDS011;51686;46.758;4.356;2022-07-25T09:44:21;9.48;;;5.10;;
65096;SDS011;51686;46.758;4.356;2022-07-25T09:47:10;8.75;;;5.28;;
65096;SDS011;51686;46.758;4.356;2022-07-25T09:49:58;8.18;;;4.65;;
65096;SDS011;51686;46.758;4.356;2022-07-25T09:52:47;8.88;;;5.20;;
65096;SDS011;51686;46.758;4.356;2022-07-25T09:55:39;8.52;;;4.93;;
65096;SDS011;51686;46.758;4.356;2022-07-25T09:58:28;9.18;;;5.57;;
65096;SDS011;51686;46.758;4.356;2022-07-25T10:01:17;9.45;;;4.82;;
65096;SDS011;51686;46.758;4.356;2022-07-25T10:04:17;8.88;;;4.85;;
65096;SDS011;51686;46.758;4.356;2022-07-25T10:07:08;8.60;;;4.82;;
65096;SDS011;51686;46.758;4.356;2022-07-25T10:09:56;8.50;;;4.85;;
65096;SDS011;51686;46.758;4.356;2022-07-25T10:12:43;8.20;;;4.95;;
65096;SDS011;51686;46.758;4.356;2022-07-25T10:15:47;8.50;;;4.70;;
65096;SDS011;51686;46.758;4.356;2022-07-25T10:18:45;9.13;;;5.05;;
65096;SDS011;51686;46.758;4.356;2022-07-25T10:21:34;9.05;;;5.20;;
65096;SDS011;51686;46.758;4.356;2022-07-25T10:24:24;8.60;;;5.15;;
65096;SDS011;51686;46.758;4.356;2022-07-25T10:27:20;8.30;;;4.65;;
65096;SDS011;51686;46.758;4.356;2022-07-25T10:30:10;8.55;;;4.82;;
65096;SDS011;51686;46.758;4.356;2022-07-25T10:33:13;8.73;;;5.32;;
65096;SDS011;51686;46.758;4.356;2022-07-25T10:36:05;7.68;;;4.55;;
65096;SDS011;51686;46.758;4.356;2022-07-25T10:42:49;8.65;;;4.97;;
65096;SDS011;51686;46.758;4.356;2022-07-25T10:45:47;8.50;;;4.72;;
65096;SDS011;51686;46.758;4.356;2022-07-25T10:48:58;8.45;;;4.85;;
65096;SDS011;51686;46.758;4.356;2022-07-25T10:51:57;9.18;;;5.05;;
65096;SDS011;51686;46.758;4.356;2022-07-25T10:58:55;8.20;;;4.68;;
65096;SDS011;51686;46.758;4.356;2022-07-25T11:02:18;7.72;;;4.55;;
65096;SDS011;51686;46.758;4.356;2022-07-25T11:05:50;9.00;;;4.90;;
65096;SDS011;51686;46.758;4.356;2022-07-25T11:08:43;8.07;;;4.72;;
65096;SDS011;51686;46.758;4.356;2022-07-25T11:11:43;8.60;;;5.15;;
65096;SDS011;51686;46.758;4.356;2022-07-25T11:14:48;8.88;;;5.30;;
65096;SDS011;51686;46.758;4.356;2022-07-25T11:18:00;8.40;;;5.35;;
65096;SDS011;51686;46.758;4.356;2022-07-25T11:28:23;8.20;;;4.85;;
65096;SDS011;51686;46.758;4.356;2022-07-25T11:34:55;8.52;;;4.68;;
65096;SDS011;51686;46.758;4.356;2022-07-25T11:38:13;8.23;;;4.43;;
65096;SDS011;51686;46.758;4.356;2022-07-25T11:41:13;8.98;;;5.20;;
65096;SDS011;51686;46.758;4.356;2022-07-25T11:44:01;9.00;;;4.97;;
65096;SDS011;51686;46.758;4.356;2022-07-25T11:49:45;7.72;;;4.10;;
65096;SDS011;51686;46.758;4.356;2022-07-25T11:52:47;8.30;;;4.85;;
65096;SDS011;51686;46.758;4.356;2022-07-25T11:55:49;8.38;;;4.70;;
65096;SDS011;51686;46.758;4.356;2022-07-25T11:58:39;8.82;;;5.10;;
65096;SDS011;51686;46.758;4.356;2022-07-25T12:01:37;8.30;;;5.00;;
65096;SDS011;51686;46.758;4.356;2022-07-25T12:04:29;8.32;;;4.95;;
65096;SDS011;51686;46.758;4.356;2022-07-25T12:07:19;8.43;;;4.95;;
65096;SDS011;51686;46.758;4.356;2022-07-25T12:10:13;8.65;;;5.25;;
65096;SDS011;51686;46.758;4.356;2022-07-25T12:13:02;8.18;;;4.90;;
65096;SDS011;51686;46.758;4.356;2022-07-25T12:15:55;8.48;;;5.25;;
65096;SDS011;51686;46.758;4.356;2022-07-25T12:18:43;9.07;;;4.95;;
65096;SDS011;51686;46.758;4.356;2022-07-25T12:21:33;9.23;;;5.47;;
65096;SDS011;51686;46.758;4.356;2022-07-25T12:24:26;8.18;;;4.78;;
65096;SDS011;51686;46.758;4.356;2022-07-25T12:27:14;9.10;;;5.00;;
65096;SDS011;51686;46.758;4.356;2022-07-25T12:30:06;8.95;;;5.20;;
65096;SDS011;51686;46.758;4.356;2022-07-25T12:32:57;8.57;;;5.43;;
65096;SDS011;51686;46.758;4.356;2022-07-25T12:35:45;9.73;;;4.93;;
65096;SDS011;51686;46.758;4.356;2022-07-25T12:38:32;9.88;;;5.10;;
65096;SDS011;51686;46.758;4.356;2022-07-25T12:41:20;8.60;;;4.95;;
65096;SDS011;51686;46.758;4.356;2022-07-25T12:44:09;8.45;;;5.03;;
65096;SDS011;51686;46.758;4.356;2022-07-25T12:46:56;8.50;;;4.55;;
65096;SDS011;51686;46.758;4.356;2022-07-25T12:49:43;7.97;;;4.63;;
65096;SDS011;51686;46.758;4.356;2022-07-25T12:52:30;8.57;;;5.03;;
65096;SDS011;51686;46.758;4.356;2022-07-25T12:55:18;8.10;;;4.68;;
65096;SDS011;51686;46.758;4.356;2022-07-25T12:58:05;8.25;;;4.75;;
65096;SDS011;51686;46.758;4.356;2022-07-25T13:00:52;8.82;;;4.78;;
65096;SDS011;51686;46.758;4.356;2022-07-25T13:03:47;8.60;;;4.88;;
65096;SDS011;51686;46.758;4.356;2022-07-25T13:06:35;8.07;;;4.55;;
65096;SDS011;51686;46.758;4.356;2022-07-25T13:09:25;7.90;;;4.57;;
65096;SDS011;51686;46.758;4.356;2022-07-25T13:15:02;7.50;;;3.92;;
65096;SDS011;51686;46.758;4.356;2022-07-25T13:17:50;7.97;;;4.63;;
65096;SDS011;51686;46.758;4.356;2022-07-25T13:20:37;8.65;;;4.72;;
65096;SDS011;51686;46.758;4.356;2022-07-25T13:23:24;7.93;;;4.85;;
65096;SDS011;51686;46.758;4.356;2022-07-25T13:26:11;7.97;;;4.83;;
65096;SDS011;51686;46.758;4.356;2022-07-25T13:28:58;8.88;;;5.07;;
65096;SDS011;51686;46.758;4.356;2022-07-25T13:31:46;7.80;;;4.63;;
65096;SDS011;51686;46.758;4.356;2022-07-25T13:34:33;7.57;;;4.28;;
65096;SDS011;51686;46.758;4.356;2022-07-25T13:37:22;8.60;;;4.72;;
65096;SDS011;51686;46.758;4.356;2022-07-25T13:40:09;8.80;;;5.00;;
65096;SDS011;51686;46.758;4.356;2022-07-25T13:42:56;8.50;;;4.55;;
65096;SDS011;51686;46.758;4.356;2022-07-25T13:45:49;8.35;;;4.93;;
65096;SDS011;51686;46.758;4.356;2022-07-25T13:48:44;8.43;;;4.57;;
65096;SDS011;51686;46.758;4.356;2022-07-25T13:51:31;8.40;;;4.57;;
65096;SDS011;51686;46.758;4.356;2022-07-25T13:54:19;8.48;;;4.85;;
65096;SDS011;51686;46.758;4.356;2022-07-25T13:57:06;8.07;;;4.70;;
65096;SDS011;51686;46.758;4.356;2022-07-25T13:59:54;8.30;;;4.75;;
65096;SDS011;51686;46.758;4.356;2022-07-25T14:02:42;8.07;;;4.50;;
65096;SDS011;51686;46.758;4.356;2022-07-25T14:05:30;8.27;;;4.63;;
65096;SDS011;51686;46.758;4.356;2022-07-25T14:08:20;7.40;;;4.20;;
65096;SDS011;51686;46.758;4.356;2022-07-25T14:11:14;7.72;;;4.35;;
65096;SDS011;51686;46.758;4.356;2022-07-25T14:14:06;8.02;;;4.53;;
65096;SDS011;51686;46.758;4.356;2022-07-25T14:17:02;8.00;;;4.45;;
65096;SDS011;51686;46.758;4.356;2022-07-25T14:19:52;7.90;;;4.57;;
65096;SDS011;51686;46.758;4.356;2022-07-25T14:22:39;7.57;;;4.25;;
65096;SDS011;51686;46.758;4.356;2022-07-25T14:25:27;8.40;;;4.88;;
65096;SDS011;51686;46.758;4.356;2022-07-25T14:28:14;8.50;;;4.80;;
65096;SDS011;51686;46.758;4.356;2022-07-25T14:31:02;8.35;;;5.00;;
65096;SDS011;51686;46.758;4.356;2022-07-25T14:34:10;8.77;;;5.18;;
65096;SDS011;51686;46.758;4.356;2022-07-25T14:36:57;8.60;;;5.10;;
65096;SDS011;51686;46.758;4.356;2022-07-25T14:39:54;7.82;;;4.50;;
65096;SDS011;51686;46.758;4.356;2022-07-25T14:42:42;9.40;;;5.05;;
65096;SDS011;51686;46.758;4.356;2022-07-25T14:45:32;7.88;;;4.53;;
65096;SDS011;51686;46.758;4.356;2022-07-25T14:48:26;8.43;;;4.72;;
65096;SDS011;51686;46.758;4.356;2022-07-25T14:51:13;8.25;;;4.68;;
65096;SDS011;51686;46.758;4.356;2022-07-25T14:54:02;8.52;;;4.80;;
65096;SDS011;51686;46.758;4.356;2022-07-25T15:10:13;7.50;;;3.85;;
65096;SDS011;51686;46.758;4.356;2022-07-25T15:13:27;7.38;;;4.07;;
65096;SDS011;51686;46.758;4.356;2022-07-25T15:17:34;8.38;;;4.15;;
65096;SDS011;51686;46.758;4.356;2022-07-25T15:20:57;7.32;;;3.80;;
65096;SDS011;51686;46.758;4.356;2022-07-25T15:23:48;7.75;;;4.30;;
65096;SDS011;51686;46.758;4.356;2022-07-25T15:26:37;7.15;;;3.72;;
65096;SDS011;51686;46.758;4.356;2022-07-25T15:29:32;7.40;;;3.70;;
65096;SDS011;51686;46.758;4.356;2022-07-25T15:32:54;6.85;;;3.53;;
65096;SDS011;51686;46.758;4.356;2022-07-25T15:35:45;7.40;;;3.75;;
65096;SDS011;51686;46.758;4.356;2022-07-25T15:38:36;6.72;;;3.25;;
65096;SDS011;51686;46.758;4.356;2022-07-25T15:41:23;7.18;;;3.50;;
65096;SDS011;51686;46.758;4.356;2022-07-25T15:44:10;6.88;;;3.33;;
65096;SDS011;51686;46.758;4.356;2022-07-25T15:47:00;7.00;;;3.58;;
65096;SDS011;51686;46.758;4.356;2022-07-25T15:50:04;5.63;;;2.80;;
65096;SDS011;51686;46.758;4.356;2022-07-25T15:52:52;6.90;;;3.40;;
65096;SDS011;51686;46.758;4.356;2022-07-25T15:55:44;6.88;;;3.45;;
65096;SDS011;51686;46.758;4.356;2022-07-25T15:58:47;6.47;;;3.15;;
65096;SDS011;51686;46.758;4.356;2022-07-25T16:01:39;6.28;;;3.00;;
65096;SDS011;51686;46.758;4.356;2022-07-25T16:05:11;6.38;;;2.90;;
65096;SDS011;51686;46.758;4.356;2022-07-25T16:08:08;5.78;;;2.90;;
65096;SDS011;51686;46.758;4.356;2022-07-25T16:10:55;6.20;;;2.97;;
65096;SDS011;51686;46.758;4.356;2022-07-25T16:13:43;6.65;;;3.17;;
65096;SDS011;51686;46.758;4.356;2022-07-25T16:16:30;6.65;;;3.40;;
65096;SDS011;51686;46.758;4.356;2022-07-25T16:19:18;6.60;;;3.22;;
65096;SDS011;51686;46.758;4.356;2022-07-25T16:22:06;6.60;;;3.30;;
65096;SDS011;51686;46.758;4.356;2022-07-25T16:25:12;6.07;;;2.88;;
65096;SDS011;51686;46.758;4.356;2022-07-25T16:28:35;6.47;;;3.08;;
65096;SDS011;51686;46.758;4.356;2022-07-25T16:31:42;6.43;;;3.05;;
65096;SDS011;51686;46.758;4.356;2022-07-25T16:35:02;6.75;;;3.42;;
65096;SDS011;51686;46.758;4.356;2022-07-25T16:38:11;6.43;;;3.17;;
65096;SDS011;51686;46.758;4.356;2022-07-25T16:44:32;5.35;;;2.65;;
65096;SDS011;51686;46.758;4.356;2022-07-25T16:47:52;6.40;;;3.05;;
65096;SDS011;51686;46.758;4.356;2022-07-25T17:04:32;6.05;;;3.00;;
65096;SDS011;51686;46.758;4.356;2022-07-25T17:07:19;6.00;;;3.05;;
65096;SDS011;51686;46.758;4.356;2022-07-25T17:10:07;6.75;;;3.15;;
65096;SDS011;51686;46.758;4.356;2022-07-25T17:12:55;7.00;;;3.28;;
65096;SDS011;51686;46.758;4.356;2022-07-25T17:15:43;6.43;;;3.20;;
65096;SDS011;51686;46.758;4.356;2022-07-25T17:18:31;7.85;;;3.40;;
65096;SDS011;51686;46.758;4.356;2022-07-25T17:21:17;6.30;;;2.78;;
65096;SDS011;51686;46.758;4.356;2022-07-25T17:24:05;6.65;;;3.22;;
65096;SDS011;51686;46.758;4.356;2022-07-25T17:26:52;5.97;;;2.95;;
65096;SDS011;51686;46.758;4.356;2022-07-25T17:29:39;6.10;;;3.13;;
65096;SDS011;51686;46.758;4.356;2022-07-25T17:32:25;7.10;;;3.38;;
65096;SDS011;51686;46.758;4.356;2022-07-25T17:35:15;5.93;;;3.03;;
65096;SDS011;51686;46.758;4.356;2022-07-25T17:38:02;6.97;;;3.38;;
65096;SDS011;51686;46.758;4.356;2022-07-25T17:40:51;6.82;;;3.40;;
65096;SDS011;51686;46.758;4.356;2022-07-25T17:43:47;6.82;;;3.00;;
65096;SDS011;51686;46.758;4.356;2022-07-25T17:47:06;6.53;;;3.00;;
65096;SDS011;51686;46.758;4.356;2022-07-25T17:49:59;6.85;;;3.22;;
65096;SDS011;51686;46.758;4.356;2022-07-25T17:52:52;6.10;;;3.00;;
65096;SDS011;51686;46.758;4.356;2022-07-25T17:55:42;7.40;;;3.20;;
65096;SDS011;51686;46.758;4.356;2022-07-25T17:58:37;6.75;;;2.95;;
65096;SDS011;51686;46.758;4.356;2022-07-25T18:01:38;6.65;;;3.22;;
65096;SDS011;51686;46.758;4.356;2022-07-25T18:04:31;7.82;;;3.55;;
65096;SDS011;51686;46.758;4.356;2022-07-25T18:07:47;7.25;;;3.40;;
65096;SDS011;51686;46.758;4.356;2022-07-25T18:11:00;6.70;;;3.05;;
65096;SDS011;51686;46.758;4.356;2022-07-25T18:13:49;6.85;;;3.38;;
65096;SDS011;51686;46.758;4.356;2022-07-25T18:16:36;6.95;;;3.35;;
65096;SDS011;51686;46.758;4.356;2022-07-25T18:19:23;9.40;;;3.75;;
65096;SDS011;51686;46.758;4.356;2022-07-25T18:24:57;6.90;;;3.08;;
65096;SDS011;51686;46.758;4.356;2022-07-25T18:27:44;7.03;;;3.63;;
65096;SDS011;51686;46.758;4.356;2022-07-25T18:30:32;8.02;;;3.63;;
65096;SDS011;51686;46.758;4.356;2022-07-25T18:33:19;7.30;;;3.70;;
65096;SDS011;51686;46.758;4.356;2022-07-25T18:36:07;7.38;;;3.50;;
65096;SDS011;51686;46.758;4.356;2022-07-25T18:38:54;7.75;;;3.78;;
65096;SDS011;51686;46.758;4.356;2022-07-25T18:41:52;8.45;;;4.05;;
65096;SDS011;51686;46.758;4.356;2022-07-25T18:44:44;7.95;;;4.20;;
65096;SDS011;51686;46.758;4.356;2022-07-25T19:08:10;7.47;;;3.53;;
65096;SDS011;51686;46.758;4.356;2022-07-25T19:12:02;7.93;;;3.60;;
65096;SDS011;51686;46.758;4.356;2022-07-25T19:15:04;8.02;;;4.38;;
65096;SDS011;51686;46.758;4.356;2022-07-25T19:17:58;8.18;;;4.40;;
65096;SDS011;51686;46.758;4.356;2022-07-25T19:20:53;9.27;;;4.40;;
65096;SDS011;51686;46.758;4.356;2022-07-25T19:23:42;9.15;;;4.35;;
65096;SDS011;51686;46.758;4.356;2022-07-25T19:26:36;7.85;;;4.13;;